Moffett Field, CA

5:19 PM PDT on October 01, 2014 (GMT -0700)
Moffett Federal Air Field | Change Station
CLOSE
Current Station
Airport
Location: Moffett NAS,
Elevation: 39 ft
Nearby Weather Stations
Active Advisory: Heat Advisory

Elev 39 ft 37.41 °N, 122.05 °W | Updated 23 minutes ago

Clear
Clear
73 °F
Feels Like 73 °F
N
10
Wind Variable Wind from NNW

Today
High -- | Low -- °F
--% Chance of Precip.
Yesterday
High -- | Low -- °F
Precip. -- in
7:03 AM 6:51 PM
First Quarter, 52% visible
Pressure 29.87 in
Visibility 10.0 miles
Clouds Clear
Dew Point 57 °F
Humidity 57%
Rainfall 0.00 in
Snow Depth 0 in , 0 in , 1 in
UV 2 out of 12
Pollen 3.60 out of 12
Ozone Good
PM2.5 Good
Flu Activity Not available.
METAR KNUQ 302356Z 33009KT 10SM CLR 23/14 A2986 RMK AO2 SLP113 T02280139 10244 20189 56018

More Conditions Fewer Conditions

Pressure 29.87 in
Visibility 10.0 miles
Clouds Clear
Dew Point 57 °F
Humidity 57%
Rainfall 0.00 in
Snow Depth 0 in , 0 in , 1 in
UV 2 out of 12
Pollen 3.60 out of 12
Ozone Good
PM2.5 Good
Flu Activity Not available.
METAR KNUQ 302356Z 33009KT 10SM CLR 23/14 A2986 RMK AO2 SLP113 T02280139 10244 20189 56018

More Conditions Fewer Conditions

10-Day Weather Forecast

Almanac

Astronomy

Oct. 01, 2014 Rise Set
Actual Time 7:03 AM PDT 6:51 PM PDT
Civil Twilight 6:37 AM PDT 7:17 PM PDT
Nautical Twilight 6:07 AM PDT 7:47 PM PDT
Astronomical Twilight 5:36 AM PDT 8:17 PM PDT
Moon 2:04 PM PDT (10/1) No Moon Set
Length of Visible Light 12h 39m
Length of Day
11h 47m
Tomorrow will be 2m 22s shorter.
First Quarter, 52% of the Moon is Illuminated
Today
First Quarter
Oct 8
Full
Oct 15
Last Quarter
Oct 23
New
Oct 30
First Quarter

Today's Extremes

State Highs State Lows

Community

WunderPhotos

Upload Photos

1,758,097 photos uploaded!

WunderBlogs® & News

Nearby

Air Quality

  Air Quality AQ Index Pollutant
Yesterday Good
OZONE
Yesterday Good
PM2.5
Current Good
OZONE
Current Good
PM2.5
Wednesday Good
PM2.5
Thursday Moderate
OZONE
Friday Moderate
NO2
Saturday Moderate
PM2.5
Sunday Moderate
PM2.5
Monday Moderate
PM2.5

Snow Depth

Station Depth Elevation
Burnside Lake 0 in 8139 ft
Spratt Creek 0 in 6200 ft
CSS Lab 1 in 6900 ft
Adin Mountain 0 in 6200 ft

Earthquake Activity

City Distance Mag. Time & Date
South Dos Palos, California 85 miles 3.0 11:17 AM PDT
2014-10-01
Shandon, California 147 miles 2.9 5:34 PM PDT
2014-09-30
East Foothills, California 15 miles 2.6 3:34 PM PDT
2014-09-30
South Dos Palos, California 85 miles 2.7 3:08 PM PDT
2014-09-30
Minimum magnitude displayed is 2.5.

Coastal Water Temperatures

Place Temperature
No Stations Reporting

Nearby Weather Stations